createdAt,value
2023-02-03T00:01:58.601Z,11.57
2023-02-03T00:04:25.520Z,15.10
2023-02-03T00:06:52.463Z,9.93
2023-02-03T00:09:20.082Z,12.25
2023-02-03T00:11:47.124Z,17.40
2023-02-03T00:14:14.005Z,11.27
2023-02-03T00:16:40.884Z,17.25
2023-02-03T00:19:07.719Z,17.27
2023-02-03T00:21:34.621Z,23.63
2023-02-03T00:24:01.440Z,11.98
2023-02-03T00:26:28.655Z,19.45
2023-02-03T00:28:55.725Z,14.85
2023-02-03T00:31:24.460Z,10.15
2023-02-03T00:33:58.126Z,17.02
2023-02-03T00:36:26.713Z,10.93
2023-02-03T00:38:54.285Z,12.80
2023-02-03T00:41:21.807Z,12.27
2023-02-03T00:43:49.860Z,13.73
2023-02-03T00:46:17.074Z,20.30
2023-02-03T00:48:43.996Z,13.90
2023-02-03T00:51:11.105Z,15.65
2023-02-03T00:53:38.044Z,9.48
2023-02-03T00:56:12.348Z,11.85
2023-02-03T00:58:40.395Z,15.93
2023-02-03T01:01:08.296Z,15.00
2023-02-03T01:03:35.357Z,14.52
2023-02-03T01:06:13.412Z,15.25
2023-02-03T01:08:40.499Z,15.55
2023-02-03T01:11:13.754Z,15.45
2023-02-03T01:13:41.415Z,15.02
2023-02-03T01:16:10.193Z,17.90
2023-02-03T01:18:37.362Z,14.70
2023-02-03T01:21:16.532Z,14.00
2023-02-03T01:23:44.015Z,17.08
2023-02-03T01:26:16.687Z,9.93
2023-02-03T01:28:43.825Z,7.07
2023-02-03T01:31:18.179Z,17.25
2023-02-03T01:33:48.867Z,11.30
2023-02-03T01:36:17.165Z,7.75
2023-02-03T01:38:45.197Z,11.32
2023-02-03T01:41:21.298Z,8.35
2023-02-03T01:43:50.866Z,9.45
2023-02-03T01:46:40.229Z,14.90
2023-02-03T01:49:12.775Z,12.05
2023-02-03T01:51:42.307Z,10.50
2023-02-03T01:54:18.919Z,7.50
2023-02-03T01:56:50.120Z,7.75
2023-02-03T01:59:22.094Z,6.40
2023-02-03T02:01:50.873Z,8.60
2023-02-03T02:04:17.903Z,11.48
2023-02-03T02:06:48.020Z,10.02
2023-02-03T02:09:16.066Z,14.77
2023-02-03T02:11:43.092Z,8.57
2023-02-03T02:14:10.724Z,8.18
2023-02-03T02:17:01.889Z,6.43
2023-02-03T02:19:50.639Z,4.55
2023-02-03T02:22:35.618Z,8.05
2023-02-03T02:25:27.325Z,12.77
2023-02-03T02:28:27.327Z,6.07
2023-02-03T02:31:31.017Z,10.20
2023-02-03T02:34:19.966Z,14.35
2023-02-03T02:37:07.614Z,12.00
2023-02-03T02:39:48.163Z,11.07
2023-02-03T02:42:34.596Z,8.40
2023-02-03T02:45:26.389Z,10.07
2023-02-03T02:48:00.199Z,4.88
2023-02-03T02:50:33.289Z,10.43
2023-02-03T02:53:00.217Z,10.70
2023-02-03T02:55:30.994Z,10.98
2023-02-03T02:58:06.740Z,10.65
2023-02-03T03:03:22.747Z,4.95
2023-02-03T03:06:03.461Z,9.80
2023-02-03T03:08:46.009Z,8.55
2023-02-03T03:11:13.217Z,10.18
2023-02-03T03:13:45.850Z,5.88
2023-02-03T03:16:16.641Z,7.07
2023-02-03T03:18:50.056Z,6.28
2023-02-03T03:21:22.784Z,8.05
2023-02-03T03:23:52.263Z,6.60
2023-02-03T03:26:32.687Z,8.52
2023-02-03T03:29:08.441Z,8.68
2023-02-03T03:31:35.953Z,9.32
2023-02-03T03:34:03.227Z,10.73
2023-02-03T03:36:46.091Z,8.02
2023-02-03T03:39:28.032Z,9.52
2023-02-03T03:42:04.714Z,5.45
2023-02-03T03:44:42.517Z,4.22
2023-02-03T03:47:26.695Z,6.65
2023-02-03T03:49:55.677Z,11.75
2023-02-03T03:52:28.884Z,6.95
2023-02-03T03:54:57.156Z,4.63
2023-02-03T03:57:48.871Z,5.30
2023-02-03T04:00:20.070Z,4.67
2023-02-03T04:02:51.687Z,5.17
2023-02-03T04:05:19.691Z,4.63
2023-02-03T04:07:48.125Z,7.03
2023-02-03T04:10:28.241Z,11.00
2023-02-03T04:12:55.226Z,6.85
2023-02-03T04:15:22.296Z,13.00
2023-02-03T04:17:49.378Z,9.75
2023-02-03T04:20:16.610Z,5.78
2023-02-03T04:22:43.471Z,7.20
2023-02-03T04:25:10.412Z,14.95
2023-02-03T04:27:37.297Z,8.27
2023-02-03T04:30:05.064Z,15.35
2023-02-03T04:32:32.213Z,6.25
2023-02-03T04:34:59.093Z,5.53
2023-02-03T04:37:28.658Z,8.90
2023-02-03T04:39:55.518Z,9.15
2023-02-03T04:42:23.892Z,10.32
2023-02-03T04:44:51.346Z,6.97
2023-02-03T04:47:18.914Z,9.85
2023-02-03T04:49:46.337Z,6.20
2023-02-03T04:52:13.482Z,6.90
2023-02-03T04:54:40.352Z,10.18
2023-02-03T04:57:07.194Z,13.77
2023-02-03T04:59:34.262Z,8.73
2023-02-03T05:02:05.044Z,5.13
2023-02-03T05:04:32.402Z,7.28
2023-02-03T05:06:59.399Z,8.45
2023-02-03T05:09:26.662Z,11.23
2023-02-03T05:11:53.646Z,7.65
2023-02-03T05:14:20.864Z,1.52
2023-02-03T05:16:47.725Z,7.22
2023-02-03T05:19:14.698Z,10.02
2023-02-03T05:21:41.534Z,6.57
2023-02-03T05:24:08.623Z,8.60
2023-02-03T05:26:36.322Z,12.90
2023-02-03T05:29:03.859Z,6.80
2023-02-03T05:31:30.746Z,4.72
2023-02-03T05:33:57.615Z,6.32
2023-02-03T05:36:24.406Z,2.35
2023-02-03T05:38:51.345Z,4.30
2023-02-03T05:41:36.670Z,3.65
2023-02-03T05:44:03.748Z,6.47
2023-02-03T05:46:30.565Z,4.35
2023-02-03T05:48:57.410Z,10.00
2023-02-03T05:51:25.005Z,6.00
2023-02-03T05:53:53.081Z,6.10
2023-02-03T05:56:19.951Z,7.53
2023-02-03T05:58:46.805Z,4.63
2023-02-03T06:01:13.652Z,3.60
2023-02-03T06:03:40.625Z,12.20
2023-02-03T06:06:07.753Z,7.18
2023-02-03T06:08:34.597Z,2.83
2023-02-03T06:11:01.524Z,2.97
2023-02-03T06:13:28.650Z,7.45
2023-02-03T06:15:56.166Z,14.82
2023-02-03T06:18:23.484Z,7.63
2023-02-03T06:20:51.117Z,7.80
2023-02-03T06:23:19.201Z,7.68
2023-02-03T06:25:49.288Z,6.75
2023-02-03T06:28:16.704Z,1.75
2023-02-03T06:30:44.028Z,9.02
2023-02-03T06:33:10.920Z,7.32
2023-02-03T06:35:37.822Z,5.03
2023-02-03T06:38:04.980Z,9.68
2023-02-03T06:40:31.900Z,9.15
2023-02-03T06:42:58.762Z,8.05
2023-02-03T06:45:25.867Z,5.63
2023-02-03T06:47:52.735Z,4.20
2023-02-03T06:50:19.697Z,7.93
2023-02-03T06:52:48.951Z,5.95
2023-02-03T06:55:15.892Z,8.02
2023-02-03T06:57:47.667Z,4.03
2023-02-03T07:00:18.793Z,11.82
2023-02-03T07:02:46.515Z,5.32
2023-02-03T07:05:13.521Z,2.10
2023-02-03T07:07:40.580Z,6.50
2023-02-03T07:10:08.355Z,9.00
2023-02-03T07:12:36.605Z,7.68
2023-02-03T07:15:04.797Z,8.00
2023-02-03T07:17:31.969Z,3.92
2023-02-03T07:19:59.268Z,5.45
2023-02-03T07:22:26.141Z,7.00
2023-02-03T07:24:52.985Z,9.52
2023-02-03T07:27:20.346Z,3.08
2023-02-03T07:29:47.220Z,7.22
2023-02-03T07:32:14.274Z,8.38
2023-02-03T07:34:41.319Z,5.28
2023-02-03T07:37:08.305Z,3.10
2023-02-03T07:39:35.178Z,7.38
2023-02-03T07:42:01.991Z,6.00
2023-02-03T07:44:29.684Z,5.20
2023-02-03T07:46:56.619Z,8.88
2023-02-03T07:49:23.581Z,8.55
2023-02-03T07:51:50.451Z,3.47
2023-02-03T07:54:17.471Z,6.97
2023-02-03T07:56:44.307Z,9.55
2023-02-03T07:59:11.183Z,13.10
2023-02-03T08:01:38.214Z,10.90
2023-02-03T08:04:05.628Z,8.35
2023-02-03T08:06:32.937Z,10.13
2023-02-03T08:08:59.947Z,5.25
2023-02-03T08:11:26.834Z,5.35
2023-02-03T08:13:53.728Z,10.88
2023-02-03T08:16:20.635Z,5.82
2023-02-03T08:18:47.509Z,5.47
2023-02-03T08:21:14.382Z,4.43
2023-02-03T08:23:41.186Z,12.75
2023-02-03T08:26:08.003Z,6.53
2023-02-03T08:28:34.968Z,7.63
2023-02-03T08:31:01.882Z,10.00
2023-02-03T08:33:29.151Z,7.40
2023-02-03T08:35:56.950Z,5.07
2023-02-03T08:38:23.891Z,10.23
2023-02-03T08:40:50.737Z,7.43
2023-02-03T08:43:17.645Z,5.20
2023-02-03T08:45:44.575Z,7.28
2023-02-03T08:48:11.647Z,5.80
2023-02-03T08:50:41.997Z,6.20
2023-02-03T08:53:09.249Z,4.80
2023-02-03T08:55:39.924Z,8.32
2023-02-03T08:58:06.768Z,7.63
2023-02-03T09:00:33.609Z,8.10
2023-02-03T09:03:00.453Z,6.88
2023-02-03T09:05:27.413Z,5.05
2023-02-03T09:07:54.279Z,5.40
2023-02-03T09:10:21.130Z,14.73
2023-02-03T09:12:48.301Z,6.72
2023-02-03T09:15:15.352Z,7.50
2023-02-03T09:17:42.224Z,12.05
2023-02-03T09:20:09.814Z,3.33
2023-02-03T09:22:36.633Z,11.95
2023-02-03T09:25:03.523Z,9.30
2023-02-03T09:27:30.391Z,4.47
2023-02-03T09:29:58.594Z,10.95
2023-02-03T09:32:25.490Z,6.13
2023-02-03T09:34:52.291Z,5.90
2023-02-03T09:37:19.288Z,12.77
2023-02-03T09:39:46.116Z,5.93
2023-02-03T09:42:26.911Z,9.07
2023-02-03T09:45:26.649Z,9.38
2023-02-03T09:47:56.511Z,7.25
2023-02-03T09:50:30.352Z,7.93
2023-02-03T09:52:58.900Z,5.97
2023-02-03T09:55:42.389Z,7.28
2023-02-03T09:58:15.240Z,10.38
2023-02-03T10:00:48.813Z,9.40
2023-02-03T10:03:33.652Z,4.22
2023-02-03T10:06:37.177Z,16.98
2023-02-03T10:09:16.230Z,10.73
2023-02-03T10:11:45.470Z,6.88
2023-02-03T10:14:41.721Z,6.47
2023-02-03T10:17:08.611Z,5.10
2023-02-03T10:19:38.559Z,6.68
2023-02-03T10:22:08.191Z,7.38
2023-02-03T10:24:50.007Z,5.38
2023-02-03T10:27:20.276Z,7.47
2023-02-03T10:29:57.966Z,8.30
2023-02-03T10:32:27.264Z,18.13
2023-02-03T10:34:55.164Z,4.15
2023-02-03T10:37:37.023Z,3.97
2023-02-03T10:40:05.129Z,8.70
2023-02-03T10:42:52.984Z,5.82
2023-02-03T10:45:20.736Z,3.03
2023-02-03T10:47:53.950Z,8.38
2023-02-03T10:50:31.711Z,3.60
2023-02-03T10:53:20.697Z,3.10
2023-02-03T10:55:51.925Z,12.32
2023-02-03T10:58:28.417Z,6.55
2023-02-03T11:00:58.706Z,3.10
2023-02-03T11:03:28.606Z,5.40
2023-02-03T11:06:09.426Z,4.68
2023-02-03T11:08:39.046Z,9.32
2023-02-03T11:11:31.553Z,9.20
2023-02-03T11:14:04.560Z,7.45
2023-02-03T11:16:34.220Z,7.32
2023-02-03T11:19:19.108Z,4.20
2023-02-03T11:21:56.023Z,4.28
2023-02-03T11:24:32.732Z,8.90
2023-02-03T11:27:13.038Z,7.95
2023-02-03T11:29:51.237Z,6.30
2023-02-03T11:32:35.656Z,6.85
2023-02-03T11:35:38.016Z,7.63
2023-02-03T11:38:04.890Z,5.75
2023-02-03T11:40:38.366Z,7.15
2023-02-03T11:43:17.399Z,4.07
2023-02-03T11:45:59.167Z,3.33
2023-02-03T11:48:59.955Z,10.88
2023-02-03T11:51:32.843Z,13.50
2023-02-03T11:54:45.003Z,4.18
2023-02-03T11:57:44.424Z,9.10
2023-02-03T12:00:55.367Z,3.47
2023-02-03T12:03:52.533Z,4.03
2023-02-03T12:06:43.394Z,6.60
2023-02-03T12:09:38.608Z,9.82
2023-02-03T12:12:34.661Z,5.82
2023-02-03T12:15:16.602Z,8.30
2023-02-03T12:17:55.458Z,10.60
2023-02-03T12:20:31.799Z,7.10
2023-02-03T12:23:23.652Z,4.43
2023-02-03T12:25:53.801Z,11.73
2023-02-03T12:28:34.207Z,12.05
2023-02-03T12:31:12.713Z,12.90
2023-02-03T12:33:52.947Z,6.47
2023-02-03T12:36:26.405Z,9.80
2023-02-03T12:39:02.680Z,12.27
2023-02-03T12:41:36.140Z,18.38
2023-02-03T12:44:15.508Z,12.32
2023-02-03T12:47:14.940Z,7.88
2023-02-03T12:49:52.621Z,9.68
2023-02-03T12:52:44.130Z,21.60
2023-02-03T12:55:38.072Z,19.45
2023-02-03T12:58:15.318Z,16.85
2023-02-03T13:00:57.339Z,9.93
2023-02-03T13:03:47.844Z,14.18
2023-02-03T13:06:44.078Z,16.85
2023-02-03T13:09:32.976Z,19.13
2023-02-03T13:12:29.655Z,14.30
2023-02-03T13:15:18.148Z,19.80
2023-02-03T13:17:54.297Z,11.88
2023-02-03T13:20:24.736Z,13.98
2023-02-03T13:22:53.273Z,17.83
2023-02-03T13:25:57.907Z,10.15
2023-02-03T13:28:42.805Z,19.30
2023-02-03T13:31:43.636Z,14.40
2023-02-03T13:34:22.446Z,18.65
2023-02-03T13:37:07.966Z,21.02
2023-02-03T13:39:49.185Z,15.52
2023-02-03T13:42:27.778Z,12.32
2023-02-03T13:45:00.338Z,26.17
2023-02-03T13:47:30.896Z,14.13
2023-02-03T13:50:04.078Z,20.25
2023-02-03T13:52:34.153Z,25.98
2023-02-03T13:55:02.822Z,18.85
2023-02-03T13:57:36.291Z,22.95
2023-02-03T14:00:28.378Z,14.80
2023-02-03T14:02:56.750Z,24.85
2023-02-03T14:05:42.398Z,17.98
2023-02-03T14:08:27.820Z,16.15
2023-02-03T14:11:32.390Z,18.50
2023-02-03T14:14:08.358Z,15.98
2023-02-03T14:16:39.047Z,15.00
2023-02-03T14:19:13.590Z,24.33
2023-02-03T14:22:04.939Z,21.08
2023-02-03T14:24:37.549Z,25.60
2023-02-03T14:27:16.125Z,23.88
2023-02-03T14:29:43.413Z,24.85
2023-02-03T14:32:14.079Z,20.77
2023-02-03T14:34:47.512Z,22.08
2023-02-03T14:37:23.013Z,20.48
2023-02-03T14:40:02.087Z,26.33
2023-02-03T14:42:51.936Z,27.63
2023-02-03T14:45:49.896Z,29.07
2023-02-03T14:48:34.824Z,38.95
2023-02-03T14:51:24.421Z,31.23
2023-02-03T14:54:03.039Z,25.23
2023-02-03T14:56:57.667Z,31.35
2023-02-03T14:59:30.321Z,30.48
2023-02-03T15:01:57.295Z,35.25
2023-02-03T15:04:25.043Z,30.70
2023-02-03T15:06:53.198Z,31.85
2023-02-03T15:09:38.718Z,28.48
2023-02-03T15:12:37.608Z,30.55
2023-02-03T15:15:22.487Z,26.27
2023-02-03T15:17:51.697Z,28.52
2023-02-03T15:20:43.639Z,29.00
2023-02-03T15:23:27.153Z,36.25
2023-02-03T15:26:02.850Z,11.95
2023-02-03T15:28:30.742Z,28.77
2023-02-03T15:31:10.280Z,24.35
2023-02-03T15:33:38.518Z,33.30
2023-02-03T15:36:21.184Z,27.60
2023-02-03T15:39:21.432Z,26.73
2023-02-03T15:41:52.003Z,29.73
2023-02-03T15:44:25.506Z,27.98
2023-02-03T15:46:54.454Z,25.45
2023-02-03T15:49:35.054Z,34.05
2023-02-03T15:52:13.667Z,16.73
2023-02-03T15:54:53.466Z,30.48
2023-02-03T15:57:29.808Z,34.03
2023-02-03T15:59:58.349Z,24.45
2023-02-03T16:02:41.081Z,28.92
2023-02-03T16:05:31.974Z,31.48
2023-02-03T16:08:25.974Z,26.75
2023-02-03T16:10:52.888Z,18.23
2023-02-03T16:13:22.968Z,21.42
2023-02-03T16:16:05.928Z,18.80
2023-02-03T16:18:36.645Z,33.55
2023-02-03T16:21:05.035Z,22.17
2023-02-03T16:23:32.190Z,24.95
2023-02-03T16:26:14.406Z,25.45
2023-02-03T16:28:59.804Z,28.77
2023-02-03T16:31:45.113Z,23.98
2023-02-03T16:34:38.093Z,34.53
2023-02-03T16:37:42.540Z,20.55
2023-02-03T16:40:30.442Z,25.67
2023-02-03T16:43:15.863Z,28.70
2023-02-03T16:46:01.813Z,26.38
2023-02-03T16:48:47.240Z,35.03
2023-02-03T16:51:16.425Z,28.02
2023-02-03T16:53:45.403Z,32.00
2023-02-03T16:56:13.582Z,27.00
2023-02-03T16:58:40.605Z,33.45
2023-02-03T17:01:09.665Z,27.60
2023-02-03T17:03:37.523Z,42.30
2023-02-03T17:06:07.100Z,33.53
2023-02-03T17:08:34.356Z,31.25
2023-02-03T17:11:19.565Z,40.75
2023-02-03T17:13:47.216Z,18.50
2023-02-03T17:16:19.567Z,24.60
2023-02-03T17:18:46.923Z,32.28
2023-02-03T17:21:17.689Z,31.50
2023-02-03T17:23:45.088Z,36.35
2023-02-03T17:26:12.021Z,26.73
2023-02-03T17:28:42.879Z,40.83
2023-02-03T17:31:14.574Z,34.50
2023-02-03T17:33:41.916Z,28.05
2023-02-03T17:36:17.383Z,30.52
2023-02-03T17:55:13.511Z,27.55
2023-02-03T17:57:40.557Z,25.05
2023-02-03T18:00:08.251Z,38.42
2023-02-03T18:02:39.482Z,25.10
2023-02-03T18:05:06.726Z,26.80
2023-02-03T18:07:33.662Z,27.55
2023-02-03T18:10:00.710Z,24.17
2023-02-03T18:12:27.659Z,24.65
2023-02-03T18:14:54.552Z,36.47
2023-02-03T18:17:21.390Z,32.90
2023-02-03T18:19:54.788Z,19.63
2023-02-03T18:22:22.629Z,20.88
2023-02-03T18:24:52.663Z,29.70
2023-02-03T18:27:19.930Z,22.17
2023-02-03T18:29:48.088Z,39.10
2023-02-03T18:32:16.386Z,32.80
2023-02-03T18:34:43.534Z,27.85
2023-02-03T18:37:11.224Z,26.05
2023-02-03T18:39:38.126Z,28.38
2023-02-03T18:42:07.339Z,30.85
2023-02-03T18:44:34.520Z,28.83
2023-02-03T18:47:07.681Z,35.22
2023-02-03T18:49:36.160Z,30.02
2023-02-03T18:52:03.672Z,32.55
2023-02-03T18:54:30.602Z,27.00
2023-02-03T18:56:58.915Z,32.00
2023-02-03T18:59:26.331Z,37.30
2023-02-03T19:01:53.410Z,40.20
2023-02-03T19:04:20.284Z,24.23
2023-02-03T19:06:47.605Z,32.58
2023-02-03T19:09:17.031Z,29.40
2023-02-03T19:11:44.489Z,30.50
2023-02-03T19:14:13.059Z,28.45
2023-02-03T19:16:40.179Z,24.77
2023-02-03T19:19:07.087Z,18.27
2023-02-03T19:21:34.063Z,33.92
2023-02-03T19:24:01.139Z,30.52
2023-02-03T19:26:28.062Z,24.20
2023-02-03T19:28:56.007Z,19.83
2023-02-03T19:31:23.232Z,44.45
2023-02-03T19:33:50.552Z,30.98
2023-02-03T19:36:17.633Z,29.60
2023-02-03T19:38:44.621Z,29.98
2023-02-03T19:41:11.870Z,33.63
2023-02-03T19:43:40.044Z,42.70
2023-02-03T19:46:08.106Z,26.10
2023-02-03T19:48:35.941Z,32.22
2023-02-03T19:51:02.876Z,37.47
2023-02-03T19:53:29.794Z,36.50
2023-02-03T19:55:56.700Z,38.38
2023-02-03T19:58:24.109Z,27.27
2023-02-03T20:00:51.543Z,32.88
2023-02-03T20:03:19.615Z,33.67
2023-02-03T20:05:46.842Z,25.38
2023-02-03T20:08:14.910Z,33.58
2023-02-03T20:10:44.585Z,23.80
2023-02-03T20:13:15.144Z,33.20
2023-02-03T20:15:42.218Z,21.50
2023-02-03T20:18:09.201Z,34.13
2023-02-03T20:20:36.162Z,33.35
2023-02-03T20:23:03.169Z,30.90
2023-02-03T20:25:30.090Z,32.28
2023-02-03T20:27:58.283Z,33.50
2023-02-03T20:30:25.746Z,35.10
2023-02-03T20:32:54.664Z,25.85
2023-02-03T20:35:23.647Z,27.38
2023-02-03T20:37:50.783Z,36.00
2023-02-03T20:40:18.393Z,23.95
2023-02-03T20:42:45.302Z,30.77
2023-02-03T20:45:20.453Z,28.70
2023-02-03T20:47:47.971Z,26.38
2023-02-03T20:50:21.566Z,24.00
2023-02-03T20:52:50.374Z,32.03
2023-02-03T20:55:20.007Z,26.25
2023-02-03T20:57:51.301Z,17.77
2023-02-03T21:00:21.982Z,26.63
2023-02-03T21:03:07.830Z,20.67
2023-02-03T21:05:42.148Z,34.22
2023-02-03T21:08:19.927Z,23.50
2023-02-03T21:10:49.069Z,28.73
2023-02-03T21:13:20.720Z,20.70
2023-02-03T21:15:52.899Z,28.52
2023-02-03T21:18:27.883Z,25.20
2023-02-03T21:20:54.818Z,26.90
2023-02-03T21:23:25.593Z,21.33
2023-02-03T21:25:52.541Z,35.65
2023-02-03T21:28:32.172Z,34.38
2023-02-03T21:30:59.410Z,26.45
2023-02-03T21:33:43.965Z,33.05
2023-02-03T21:36:23.513Z,31.90
2023-02-03T21:38:53.892Z,25.48
2023-02-03T21:41:22.982Z,28.92
2023-02-03T21:43:55.866Z,21.40
2023-02-03T21:46:28.386Z,37.60
2023-02-03T21:48:59.655Z,23.50
2023-02-03T21:51:35.407Z,26.08
2023-02-03T21:54:15.850Z,40.58
2023-02-03T21:56:42.947Z,24.23
2023-02-03T21:59:26.039Z,20.98
2023-02-03T22:01:55.747Z,21.00
2023-02-03T22:04:25.907Z,24.15
2023-02-03T22:06:54.215Z,18.10
2023-02-03T22:09:23.867Z,26.42
2023-02-03T22:11:51.722Z,23.70
2023-02-03T22:14:22.721Z,27.17
2023-02-03T22:16:50.120Z,21.80
2023-02-03T22:19:17.659Z,27.38
2023-02-03T22:21:45.099Z,22.67
2023-02-03T22:24:12.219Z,26.80
2023-02-03T22:26:39.155Z,31.02
2023-02-03T22:29:05.980Z,36.90
2023-02-03T22:31:33.038Z,33.33
2023-02-03T22:34:00.102Z,28.48
2023-02-03T22:36:27.097Z,24.33
2023-02-03T22:38:53.947Z,25.20
2023-02-03T22:41:21.566Z,30.38
2023-02-03T22:43:48.720Z,31.42
2023-02-03T22:46:15.678Z,23.33
2023-02-03T22:48:42.615Z,25.38
2023-02-03T22:51:09.586Z,31.38
2023-02-03T22:53:36.596Z,35.42
2023-02-03T22:56:03.591Z,23.63
2023-02-03T22:58:30.545Z,25.60
2023-02-03T23:00:57.337Z,38.83
2023-02-03T23:03:24.297Z,26.65
2023-02-03T23:05:51.239Z,25.40
2023-02-03T23:08:18.063Z,21.52
2023-02-03T23:10:44.899Z,26.35
2023-02-03T23:13:11.819Z,23.60
2023-02-03T23:15:38.704Z,30.90
2023-02-03T23:18:05.790Z,36.53
2023-02-03T23:20:33.196Z,19.30
2023-02-03T23:23:00.230Z,31.55
2023-02-03T23:25:27.174Z,27.92
2023-02-03T23:27:54.167Z,26.75
2023-02-03T23:30:21.162Z,29.35
2023-02-03T23:32:48.025Z,19.23
2023-02-03T23:35:33.360Z,23.35
2023-02-03T23:38:00.217Z,25.52
2023-02-03T23:40:27.126Z,22.35
2023-02-03T23:42:53.963Z,24.55
2023-02-03T23:45:20.802Z,20.58
2023-02-03T23:47:47.618Z,36.25
2023-02-03T23:50:16.637Z,27.35
2023-02-03T23:52:43.596Z,20.73
2023-02-03T23:55:16.320Z,25.90
2023-02-03T23:57:44.027Z,21.58
